Time;durP1;ratioP1;P1;durP2;ratioP2;P2;SDS_P1;SDS_P2;PMS_P1;PMS_P2;Temp;Humidity;BMP_temperature;BMP_pressure;BME280_temperature;BME280_humidity;BME280_pressure;Samples;Min_cycle;Max_cycle;Signal;HPM_P1;HPM_P2
2021/10/10 00:00:41;;;;;;;4.00;1.88;;;;;;;6.79;95.72;102698.94;6298363;28;20048;-77
2021/10/10 00:03:43;;;;;;;8.45;2.58;;;;;;;6.77;95.31;102703.31;6298526;28;20049;-77
2021/10/10 00:06:44;;;;;;;5.63;2.35;;;;;;;6.72;95.10;102698.09;6298625;28;20055;-77
2021/10/10 00:09:46;;;;;;;5.25;2.53;;;;;;;6.69;95.72;102698.13;6298631;28;20048;-77
2021/10/10 00:12:48;;;;;;;7.50;2.03;;;;;;;6.66;96.10;102692.91;6298529;28;20488;-77
2021/10/10 00:15:49;;;;;;;5.65;2.70;;;;;;;6.64;96.47;102696.41;6298392;28;20052;-77
2021/10/10 00:18:51;;;;;;;3.72;2.55;;;;;;;6.59;96.22;102699.91;6298284;28;20469;-77
2021/10/10 00:21:52;;;;;;;4.43;2.65;;;;;;;6.57;97.16;102696.44;6298159;28;20048;-77
2021/10/10 00:24:54;;;;;;;5.85;2.75;;;;;;;6.59;96.18;102683.38;6297899;28;20509;-77
2021/10/10 00:27:57;;;;;;;4.90;2.70;;;;;;;6.57;96.74;102685.13;6298028;28;20052;-77
2021/10/10 00:30:58;;;;;;;4.55;1.90;;;;;;;6.53;95.67;102692.09;6298235;28;20049;-77
2021/10/10 00:33:59;;;;;;;4.70;2.95;;;;;;;6.50;96.08;102691.25;6297616;28;20082;-77
2021/10/10 00:37:01;;;;;;;4.03;2.60;;;;;;;6.47;96.61;102688.66;6298121;28;20065;-76
2021/10/10 00:40:03;;;;;;;4.80;2.55;;;;;;;6.45;96.08;102695.63;6297626;28;20048;-77
2021/10/10 00:43:06;;;;;;;9.88;2.80;;;;;;;6.42;96.63;102686.06;6297937;28;20514;-77
2021/10/10 00:46:07;;;;;;;7.65;3.30;;;;;;;6.38;95.69;102691.31;6297394;28;20048;-77
2021/10/10 00:49:08;;;;;;;4.45;2.47;;;;;;;6.33;96.74;102686.13;6297843;28;20048;-77
2021/10/10 00:52:14;;;;;;;4.35;2.45;;;;;;;6.32;96.57;102689.59;6297353;28;20423;-77
2021/10/10 00:55:16;;;;;;;8.93;3.17;;;;;;;6.37;97.00;102687.84;6297161;28;20083;-77
2021/10/10 00:58:22;;;;;;;5.75;2.85;;;;;;;6.35;96.48;102680.00;6297468;28;20092;-77
2021/10/10 01:01:23;;;;;;;4.80;2.42;;;;;;;6.32;96.44;102677.41;6297234;28;20446;-77
2021/10/10 01:04:25;;;;;;;9.13;3.13;;;;;;;6.32;96.30;102687.00;6296846;28;20075;-77
2021/10/10 01:07:27;;;;;;;4.93;2.83;;;;;;;6.25;96.77;102675.69;6297155;28;20059;-76
2021/10/10 01:10:28;;;;;;;3.83;2.42;;;;;;;6.25;96.95;102670.47;6297167;28;20048;-77
2021/10/10 01:13:31;;;;;;;3.33;2.35;;;;;;;6.24;96.25;102660.91;6295881;28;20055;-77
2021/10/10 01:16:33;;;;;;;6.00;2.78;;;;;;;6.23;96.54;102666.16;6297024;28;20488;-76
2021/10/10 01:19:35;;;;;;;6.25;2.72;;;;;;;6.22;96.20;102670.50;6296898;28;20048;-75
2021/10/10 01:22:38;;;;;;;6.32;2.92;;;;;;;6.22;96.21;102667.91;6297002;28;20495;-77
2021/10/10 01:25:39;;;;;;;4.60;2.47;;;;;;;6.17;96.16;102663.53;6296369;28;20040;-77
2021/10/10 01:28:41;;;;;;;9.07;2.38;;;;;;;6.12;96.61;102668.78;6297117;28;20056;-77
2021/10/10 01:31:42;;;;;;;6.90;2.63;;;;;;;6.09;96.98;102659.25;6296719;28;20048;-77
2021/10/10 01:34:44;;;;;;;10.77;3.08;;;;;;;6.08;97.04;102657.47;6296561;28;20041;-76
2021/10/10 01:37:47;;;;;;;5.63;2.72;;;;;;;6.08;96.80;102654.00;6296870;28;20060;-77
2021/10/10 01:40:49;;;;;;;7.63;2.75;;;;;;;6.06;96.94;102654.03;6296606;28;20048;-77
2021/10/10 01:43:50;;;;;;;6.05;2.72;;;;;;;6.04;97.00;102655.78;6296791;28;20049;-77
2021/10/10 01:46:51;;;;;;;8.70;3.28;;;;;;;6.01;96.35;102650.56;6296497;28;20048;-77
2021/10/10 01:49:53;;;;;;;10.10;2.28;;;;;;;5.98;97.06;102654.91;6296535;28;20071;-77
2021/10/10 01:52:55;;;;;;;5.63;2.28;;;;;;;5.93;97.33;102654.06;6296321;28;20059;-77
2021/10/10 01:55:57;;;;;;;4.88;3.15;;;;;;;5.85;97.40;102657.53;6296287;28;20044;-77
2021/10/10 01:58:58;;;;;;;7.40;3.08;;;;;;;5.80;97.20;102656.69;6296393;28;20053;-77
2021/10/10 02:01:59;;;;;;;6.32;3.25;;;;;;;5.76;98.32;102654.09;6296571;28;20044;-77
2021/10/10 02:05:01;;;;;;;4.00;2.42;;;;;;;5.75;97.63;102652.34;6296044;28;20067;-77
2021/10/10 02:08:04;;;;;;;6.28;2.53;;;;;;;5.74;97.46;102645.41;6296088;28;20053;-77
2021/10/10 02:11:05;;;;;;;4.40;2.38;;;;;;;5.70;98.05;102644.53;6296074;28;20049;-77
2021/10/10 02:14:06;;;;;;;5.47;2.75;;;;;;;5.62;97.99;102643.69;6296116;28;20063;-77
2021/10/10 02:17:08;;;;;;;4.50;2.25;;;;;;;5.52;98.18;102650.66;6296535;28;20047;-77
2021/10/10 02:20:11;;;;;;;8.18;3.08;;;;;;;5.40;98.13;102642.84;6296242;28;20114;-77
2021/10/10 02:23:13;;;;;;;6.63;2.25;;;;;;;5.38;99.36;102644.59;6296772;28;20422;-77
2021/10/10 02:26:15;;;;;;;7.00;3.08;;;;;;;5.38;98.99;102636.78;6301002;28;20044;-76
2021/10/10 02:29:16;;;;;;;4.55;2.83;;;;;;;5.36;99.04;102633.31;6301179;28;20048;-77
2021/10/10 02:32:17;;;;;;;7.35;2.78;;;;;;;5.33;98.87;102636.78;6300643;28;20052;-77
2021/10/10 02:35:19;;;;;;;4.50;2.47;;;;;;;5.32;99.35;102627.25;6300573;28;20515;-77
2021/10/10 02:38:22;;;;;;;4.72;2.50;;;;;;;5.24;98.77;102628.97;6300619;28;20044;-77
2021/10/10 02:41:23;;;;;;;4.80;2.63;;;;;;;5.19;99.79;102617.69;6300431;28;20055;-77
2021/10/10 02:44:25;;;;;;;4.75;2.63;;;;;;;5.17;99.70;102614.19;6300343;28;20059;-77
2021/10/10 02:47:26;;;;;;;8.95;3.10;;;;;;;5.17;99.55;102609.00;6300161;28;20055;-77
2021/10/10 02:50:28;;;;;;;6.50;2.83;;;;;;;5.11;99.41;102600.31;6300481;28;20526;-77
2021/10/10 02:53:30;;;;;;;7.78;3.22;;;;;;;5.06;99.43;102603.78;6299755;28;20078;-77
2021/10/10 02:56:32;;;;;;;6.45;3.22;;;;;;;5.02;99.56;102599.44;6299941;28;20407;-77
2021/10/10 02:59:33;;;;;;;6.15;2.17;;;;;;;5.02;99.30;102604.66;6300143;28;20053;-77
2021/10/10 03:02:34;;;;;;;6.13;2.75;;;;;;;4.91;99.13;102601.22;6299909;28;20072;-77
2021/10/10 03:05:36;;;;;;;5.97;2.72;;;;;;;4.86;99.77;102595.13;6299748;28;20044;-77
2021/10/10 03:08:38;;;;;;;10.98;3.40;;;;;;;4.86;99.63;102594.25;6299922;28;20052;-77
2021/10/10 03:11:40;;;;;;;5.22;2.53;;;;;;;4.82;99.40;102598.59;6299914;28;20064;-77
2021/10/10 03:14:41;;;;;;;7.38;2.70;;;;;;;4.77;99.60;102601.22;6299407;28;20051;-77
2021/10/10 03:17:42;;;;;;;7.95;2.75;;;;;;;4.71;99.73;102601.19;6299797;28;20044;-77
2021/10/10 03:20:44;;;;;;;4.45;2.42;;;;;;;4.71;100.00;102595.09;6299710;28;20055;-77
2021/10/10 03:23:46;;;;;;;6.35;3.08;;;;;;;4.65;99.97;102587.31;6299213;28;20519;-77
2021/10/10 03:26:48;;;;;;;9.07;3.15;;;;;;;4.61;100.00;102601.19;6299244;28;20044;-77
2021/10/10 03:29:49;;;;;;;7.40;3.47;;;;;;;4.59;100.00;102590.78;6299613;28;20442;-77
2021/10/10 03:32:50;;;;;;;9.30;4.28;;;;;;;4.56;100.00;102591.63;6299235;28;20056;-77
2021/10/10 03:35:52;;;;;;;8.88;2.40;;;;;;;4.56;100.00;102583.81;6298240;28;20041;-77
2021/10/10 03:38:54;;;;;;;7.93;3.20;;;;;;;4.52;100.00;102573.41;6299110;28;20447;-77
2021/10/10 03:41:55;;;;;;;9.40;3.35;;;;;;;4.50;100.00;102576.00;6299332;28;20056;-76
2021/10/10 03:44:57;;;;;;;7.22;2.88;;;;;;;4.53;100.00;102575.13;6299042;28;20059;-77
2021/10/10 03:47:58;;;;;;;5.32;2.90;;;;;;;4.54;100.00;102575.16;6298764;28;20060;-77
2021/10/10 03:50:59;;;;;;;6.82;2.78;;;;;;;4.55;100.00;102573.41;6298816;28;20411;-76
2021/10/10 03:57:22;;;;;;;5.53;2.00;;;;;;;4.47;100.00;102568.19;6298696;28;20131;-77
2021/10/10 04:00:25;;;;;;;5.03;2.60;;;;;;;4.46;100.00;102560.38;6298690;28;20058;-77
2021/10/10 04:03:27;;;;;;;6.32;3.08;;;;;;;4.42;100.00;102559.50;6298401;28;20056;-76
2021/10/10 04:06:28;;;;;;;5.40;2.60;;;;;;;4.36;100.00;102563.81;6298438;28;20044;-77
2021/10/10 04:09:31;;;;;;;6.47;3.70;;;;;;;4.35;100.00;102562.09;6298450;28;20059;-77
2021/10/10 04:12:32;;;;;;;3.17;2.08;;;;;;;4.32;100.00;102569.03;6298315;28;20483;-77
2021/10/10 04:15:34;;;;;;;5.68;3.15;;;;;;;4.34;100.00;102558.63;6298332;28;20052;-77
2021/10/10 04:18:36;;;;;;;7.00;4.00;;;;;;;4.32;100.00;102560.38;6298210;28;20048;-77
2021/10/10 04:21:37;;;;;;;6.03;2.45;;;;;;;4.32;100.00;102557.75;6298271;28;20056;-77
2021/10/10 04:24:40;;;;;;;12.93;3.83;;;;;;;4.37;100.00;102552.56;6294433;28;20722;-76
2021/10/10 04:27:42;;;;;;;10.75;3.83;;;;;;;4.40;100.00;102555.16;6297700;28;20052;-77
2021/10/10 04:30:43;;;;;;;6.55;2.72;;;;;;;4.36;100.00;102549.09;6297995;28;20415;-76
2021/10/10 04:33:44;;;;;;;5.13;2.83;;;;;;;4.35;100.00;102544.72;6296366;28;20051;-76
2021/10/10 04:36:46;;;;;;;7.00;3.03;;;;;;;4.26;100.00;102542.13;6297515;28;20045;-77
2021/10/10 04:39:48;;;;;;;6.85;3.33;;;;;;;4.21;100.00;102539.50;6297368;28;20052;-77
2021/10/10 04:42:50;;;;;;;5.95;3.50;;;;;;;4.22;100.00;102528.22;6297549;28;20076;-77
2021/10/10 04:45:51;;;;;;;14.52;2.90;;;;;;;4.24;100.00;102530.84;6296856;28;20550;-77
2021/10/10 04:48:53;;;;;;;9.05;3.28;;;;;;;4.23;100.00;102524.78;6297579;28;20049;-77
2021/10/10 04:51:54;;;;;;;6.45;3.17;;;;;;;4.23;100.00;102523.91;6297393;28;20063;-77
2021/10/10 04:54:57;;;;;;;7.28;3.25;;;;;;;4.22;100.00;102528.22;6297175;28;20052;-77
2021/10/10 04:57:58;;;;;;;5.93;2.72;;;;;;;4.21;100.00;102520.44;6288900;28;20048;-78
2021/10/10 05:00:59;;;;;;;5.13;2.85;;;;;;;4.24;100.00;102513.50;6297313;28;20048;-77
2021/10/10 05:04:01;;;;;;;7.78;3.42;;;;;;;4.25;100.00;102520.44;6296666;28;20053;-77
2021/10/10 05:07:02;;;;;;;8.02;3.47;;;;;;;4.23;100.00;102518.72;6297088;28;20048;-77
2021/10/10 05:10:06;;;;;;;7.47;3.17;;;;;;;4.19;100.00;102501.34;6297053;28;20048;-77
2021/10/10 05:13:07;;;;;;;8.30;3.55;;;;;;;4.21;100.00;102507.41;6296614;28;20052;-77
2021/10/10 05:16:08;;;;;;;7.10;3.15;;;;;;;4.20;100.00;102505.69;6296811;28;20041;-77
2021/10/10 05:19:10;;;;;;;6.20;2.75;;;;;;;4.20;100.00;102500.47;6296735;28;20076;-77
2021/10/10 05:22:11;;;;;;;9.27;3.55;;;;;;;4.17;100.00;102501.34;6297027;28;20056;-77
2021/10/10 05:25:15;;;;;;;7.47;3.50;;;;;;;4.16;100.00;102504.81;6296443;28;20045;-77
2021/10/10 05:28:16;;;;;;;7.05;3.33;;;;;;;4.13;100.00;102502.19;6296235;28;20086;-77
2021/10/10 05:31:18;;;;;;;8.57;3.28;;;;;;;4.11;100.00;102509.13;6277539;28;20048;-77
2021/10/10 05:34:19;;;;;;;9.82;4.50;;;;;;;4.09;100.00;102508.28;6286609;28;20044;-77
2021/10/10 05:37:22;;;;;;;5.13;2.88;;;;;;;4.08;100.00;102503.91;6287631;28;20041;-77
2021/10/10 05:40:24;;;;;;;5.88;3.28;;;;;;;4.04;100.00;102502.19;6292683;28;20053;-77
2021/10/10 05:43:26;;;;;;;7.45;2.78;;;;;;;4.07;100.00;102502.19;6281359;28;20045;-77
2021/10/10 05:46:27;;;;;;;5.82;3.40;;;;;;;4.09;100.00;102500.47;6282373;28;20055;-76
2021/10/10 05:49:29;;;;;;;8.20;3.15;;;;;;;4.13;100.00;102504.78;6288828;28;20519;-77
2021/10/10 05:52:30;;;;;;;5.00;3.10;;;;;;;4.20;100.00;102509.16;6286695;28;20063;-75
2021/10/10 05:55:33;;;;;;;6.70;3.30;;;;;;;4.22;100.00;102510.00;6296275;28;20041;-77
2021/10/10 05:58:40;;;;;;;8.35;3.05;;;;;;;4.18;100.00;102508.28;6297961;28;20135;-77
2021/10/10 06:01:41;;;;;;;8.20;3.85;;;;;;;4.20;100.00;102509.16;6301657;28;20414;-77
2021/10/10 06:04:43;;;;;;;5.72;3.20;;;;;;;4.22;100.00;102507.41;6300847;28;20081;-77
2021/10/10 06:07:44;;;;;;;6.03;3.38;;;;;;;4.23;100.00;102508.31;6301225;28;20416;-77
2021/10/10 06:10:47;;;;;;;6.07;3.55;;;;;;;4.26;100.00;102513.50;6297672;28;20060;-77
2021/10/10 06:13:48;;;;;;;9.57;3.10;;;;;;;4.28;100.00;102509.16;6287150;28;20063;-77
2021/10/10 06:16:50;;;;;;;7.93;3.58;;;;;;;4.29;100.00;102503.97;6288492;28;20044;-77
2021/10/10 06:19:51;;;;;;;6.70;3.15;;;;;;;4.35;100.00;102510.03;6286712;28;20045;-77
2021/10/10 06:22:52;;;;;;;7.25;3.60;;;;;;;4.38;100.00;102515.25;6288363;28;20392;-77
2021/10/10 06:25:55;;;;;;;6.72;3.15;;;;;;;4.40;100.00;102503.09;6300354;28;20047;-77
2021/10/10 06:28:56;;;;;;;5.20;3.15;;;;;;;4.43;100.00;102503.97;6300589;28;20056;-77
2021/10/10 06:31:58;;;;;;;6.18;3.17;;;;;;;4.47;100.00;102515.25;6300643;28;20052;-77
2021/10/10 06:34:59;;;;;;;6.63;3.40;;;;;;;4.46;100.00;102510.94;6300308;28;20056;-77
2021/10/10 06:38:00;;;;;;;4.15;3.03;;;;;;;4.51;100.00;102517.84;6300349;28;20048;-77
2021/10/10 06:41:03;;;;;;;6.72;3.75;;;;;;;4.55;100.00;102511.78;6300484;28;20503;-77
2021/10/10 06:44:08;;;;;;;9.70;3.63;;;;;;;4.66;100.00;102521.31;6300030;28;20134;-77
2021/10/10 06:47:09;;;;;;;5.90;3.22;;;;;;;4.62;99.73;102516.97;6300124;28;20807;-76
2021/10/10 06:50:10;;;;;;;7.80;2.50;;;;;;;4.55;99.48;102522.19;6300399;28;20487;-77
2021/10/10 06:53:12;;;;;;;6.30;3.45;;;;;;;4.57;100.00;102520.44;6299976;28;20051;-77
2021/10/10 06:56:14;;;;;;;5.95;2.42;;;;;;;4.63;100.00;102510.91;6300177;28;20388;-77
2021/10/10 06:59:16;;;;;;;9.93;4.20;;;;;;;4.78;100.00;102513.53;6299994;28;20048;-77
2021/10/10 07:02:17;;;;;;;10.13;4.25;;;;;;;4.90;99.95;102515.22;6300075;28;20048;-77
2021/10/10 07:05:19;;;;;;;6.28;2.83;;;;;;;5.04;100.00;102518.66;6299467;28;20060;-77
2021/10/10 07:08:20;;;;;;;10.38;3.92;;;;;;;5.09;99.35;102525.63;6300229;28;20487;-77
2021/10/10 07:11:23;;;;;;;8.35;3.28;;;;;;;5.08;98.57;102526.47;6298107;28;20419;-77
2021/10/10 07:14:25;;;;;;;6.90;3.35;;;;;;;5.02;98.46;102526.50;6299726;28;20060;-76
2021/10/10 07:17:27;;;;;;;5.20;3.28;;;;;;;5.07;99.61;102529.09;6299882;28;20044;-78
2021/10/10 07:20:40;;;;;;;9.52;3.97;;;;;;;5.15;98.02;102535.16;6299890;28;20495;-78
2021/10/10 07:23:56;;;;;;;6.70;3.70;;;;;;;5.23;98.29;102523.00;6299349;28;20055;-77
2021/10/10 07:26:58;;;;;;;7.93;3.15;;;;;;;5.31;98.81;102520.34;6299838;28;20417;-77
2021/10/10 07:30:00;;;;;;;9.55;3.67;;;;;;;5.40;99.28;102522.06;6299229;28;20045;-78
2021/10/10 07:33:01;;;;;;;6.53;3.05;;;;;;;5.42;98.69;102528.16;6298140;28;20056;-77
2021/10/10 07:36:03;;;;;;;6.43;3.03;;;;;;;5.46;98.96;102528.13;6299098;28;20044;-78
2021/10/10 07:39:05;;;;;;;6.25;3.30;;;;;;;5.51;98.78;102523.75;6299154;28;20052;-77
2021/10/10 07:42:07;;;;;;;5.13;2.83;;;;;;;5.54;98.76;102522.88;6299496;28;20045;-77
2021/10/10 07:45:11;;;;;;;6.75;3.25;;;;;;;5.62;98.55;102521.09;6298663;28;20052;-77
2021/10/10 07:48:12;;;;;;;6.07;2.75;;;;;;;5.69;98.56;102520.22;6299078;28;20048;-77
2021/10/10 07:51:14;;;;;;;6.90;4.13;;;;;;;5.70;98.20;102516.72;6298739;28;20048;-77
2021/10/10 07:54:16;;;;;;;11.93;3.13;;;;;;;5.76;98.50;102518.44;6298616;28;20641;-77
2021/10/10 07:57:19;;;;;;;6.53;3.08;;;;;;;5.82;98.92;102519.28;6298014;28;20041;-77
2021/10/10 08:00:20;;;;;;;8.95;3.03;;;;;;;5.88;99.17;102520.13;6286629;28;20395;-77
2021/10/10 08:03:21;;;;;;;5.50;2.53;;;;;;;6.00;99.78;102520.09;6282318;28;20419;-77
2021/10/10 08:06:23;;;;;;;7.10;2.92;;;;;;;6.07;100.00;102522.63;6278715;28;20045;-77
2021/10/10 08:09:24;;;;;;;6.85;2.75;;;;;;;6.16;99.81;102515.63;6298390;28;20052;-77
2021/10/10 08:12:26;;;;;;;6.93;3.28;;;;;;;6.22;100.00;102510.38;6298529;28;20045;-77
2021/10/10 08:15:28;;;;;;;4.05;2.58;;;;;;;6.28;100.00;102503.38;6288187;28;20048;-78
2021/10/10 08:18:30;;;;;;;5.47;2.67;;;;;;;6.35;100.00;102518.09;6273434;28;20052;-77
2021/10/10 08:21:31;;;;;;;5.03;2.85;;;;;;;6.40;99.82;102510.22;6273020;28;20049;-77
2021/10/10 08:24:33;;;;;;;7.10;3.20;;;;;;;6.46;99.97;102506.72;6272287;28;20458;-77
2021/10/10 08:27:36;;;;;;;5.15;2.83;;;;;;;6.52;100.00;102510.16;6273314;28;20045;-77
2021/10/10 08:30:38;;;;;;;5.53;3.05;;;;;;;6.60;100.00;102505.72;6273014;28;20052;-77
2021/10/10 08:33:39;;;;;;;6.30;2.88;;;;;;;6.68;100.00;102508.28;6290933;28;20503;-77
2021/10/10 08:36:40;;;;;;;5.55;3.38;;;;;;;6.79;99.66;102518.63;6297607;28;20044;-77
2021/10/10 08:39:42;;;;;;;10.43;3.80;;;;;;;6.88;99.30;102523.78;6297775;28;20052;-76
2021/10/10 08:42:46;;;;;;;5.18;2.88;;;;;;;7.00;97.22;102528.88;6297535;28;20059;-77
2021/10/10 08:45:49;;;;;;;6.32;3.22;;;;;;;7.16;98.08;102528.72;6296707;28;20544;-77
2021/10/10 08:48:50;;;;;;;5.22;2.55;;;;;;;7.24;97.69;102524.28;6297532;28;20055;-77
2021/10/10 08:51:51;;;;;;;8.90;3.08;;;;;;;7.37;98.69;102520.66;6297520;28;20449;-77
2021/10/10 08:54:53;;;;;;;6.68;2.78;;;;;;;7.48;99.06;102513.53;6296706;28;20045;-77
2021/10/10 08:57:56;;;;;;;7.15;3.28;;;;;;;7.63;98.64;102504.66;6297051;28;20044;-77
2021/10/10 09:01:02;;;;;;;6.97;4.10;;;;;;;7.80;97.68;102504.41;6297350;28;20135;-77
2021/10/10 09:04:03;;;;;;;5.47;3.42;;;;;;;7.93;96.67;102505.97;6296354;28;20056;-77
2021/10/10 09:07:04;;;;;;;5.03;2.65;;;;;;;8.06;96.97;102502.28;6297293;28;20044;-77
2021/10/10 09:10:17;;;;;;;8.10;3.85;;;;;;;8.20;94.68;102496.84;6290558;28;20053;-77
2021/10/10 09:13:23;;;;;;;7.15;3.22;;;;;;;8.32;94.51;102504.53;6280602;28;20076;-77
2021/10/10 09:16:34;;;;;;;4.78;2.60;;;;;;;8.41;94.90;102506.16;6295356;28;20522;-76
2021/10/10 09:19:35;;;;;;;5.78;3.03;;;;;;;8.44;90.46;102507.84;6288889;28;20044;-76
2021/10/10 09:22:37;;;;;;;8.45;3.10;;;;;;;8.48;88.41;102515.63;6296306;28;20044;-77
2021/10/10 09:25:53;;;;;;;3.92;2.65;;;;;;;8.54;86.99;102515.56;6296311;28;20049;-77
2021/10/10 09:28:56;;;;;;;5.95;3.28;;;;;;;8.68;86.66;102519.72;6296388;28;20610;-77
2021/10/10 09:32:03;;;;;;;5.82;3.25;;;;;;;8.76;85.37;102534.38;6296913;28;20051;-77
2021/10/10 09:35:05;;;;;;;6.30;2.72;;;;;;;8.82;84.94;102525.56;6295112;28;20051;-77
2021/10/10 09:38:13;;;;;;;5.15;2.83;;;;;;;8.87;84.32;102519.34;6295861;28;20071;-76
2021/10/10 09:41:24;;;;;;;3.95;2.70;;;;;;;8.87;83.92;102510.63;6295440;28;20133;-77
2021/10/10 09:44:34;;;;;;;6.82;3.00;;;;;;;8.92;85.31;102505.28;6295721;28;20055;-77
2021/10/10 09:47:49;;;;;;;4.68;2.47;;;;;;;8.98;86.85;102503.41;6293776;28;20601;-79
2021/10/10 09:50:50;;;;;;;9.00;3.78;;;;;;;8.96;85.03;102513.06;6294493;28;20044;-76
2021/10/10 09:54:00;;;;;;;8.43;3.67;;;;;;;9.04;85.87;102516.44;6294633;28;20049;-74
2021/10/10 09:57:06;;;;;;;8.80;3.95;;;;;;;9.05;86.43;102505.03;6296240;28;20051;-74
2021/10/10 10:00:18;;;;;;;6.78;3.17;;;;;;;9.10;87.88;102508.44;6296041;28;20053;-75
2021/10/10 10:03:20;;;;;;;5.32;3.40;;;;;;;9.18;89.04;102504.81;6295927;28;20143;-75
2021/10/10 10:06:22;;;;;;;5.97;3.28;;;;;;;9.26;91.20;102501.13;6295202;28;20066;-75
2021/10/10 10:09:24;;;;;;;6.72;3.10;;;;;;;9.30;89.81;102489.69;6293690;28;20443;-75
2021/10/10 10:12:25;;;;;;;4.57;2.75;;;;;;;9.36;89.87;102468.59;6295810;28;20568;-75
2021/10/10 10:15:31;;;;;;;5.15;2.53;;;;;;;9.40;90.70;102457.13;6295799;28;20127;-75
2021/10/10 10:18:33;;;;;;;6.63;3.22;;;;;;;9.47;90.90;102457.00;6295925;28;20063;-75
2021/10/10 10:21:34;;;;;;;5.63;3.00;;;;;;;9.59;90.03;102452.34;6295636;28;20049;-75
2021/10/10 10:24:38;;;;;;;7.47;3.95;;;;;;;9.69;88.87;102449.53;6295487;28;20415;-75
2021/10/10 10:27:40;;;;;;;7.72;3.25;;;;;;;9.82;86.91;102456.22;6295746;28;20052;-75
2021/10/10 10:30:42;;;;;;;6.38;3.35;;;;;;;9.95;86.16;102451.53;6295915;28;20060;-75
2021/10/10 10:33:44;;;;;;;8.60;3.38;;;;;;;10.04;85.31;102441.69;6294604;28;20046;-75
2021/10/10 10:36:54;;;;;;;4.32;2.63;;;;;;;10.18;84.60;102430.00;6295441;28;20049;-75
2021/10/10 10:39:55;;;;;;;6.15;3.10;;;;;;;10.35;82.63;102433.06;6295542;28;20048;-75
2021/10/10 10:43:00;;;;;;;4.75;3.05;;;;;;;10.48;82.96;102436.25;6295523;28;20048;-75
2021/10/10 10:46:07;;;;;;;6.47;3.28;;;;;;;10.62;82.24;102436.75;6298972;28;20056;-76
2021/10/10 10:49:08;;;;;;;7.90;3.30;;;;;;;10.74;82.73;102438.22;6300405;28;20098;-75
2021/10/10 10:52:24;;;;;;;5.72;3.22;;;;;;;10.86;83.84;102449.28;6299975;28;20063;-75
2021/10/10 10:55:28;;;;;;;5.53;2.72;;;;;;;10.99;82.99;102456.81;6299792;28;20044;-75
2021/10/10 10:58:45;;;;;;;6.00;2.88;;;;;;;11.11;81.13;102448.56;6299239;28;20048;-75
2021/10/10 11:02:01;;;;;;;10.48;4.03;;;;;;;11.15;80.10;102464.22;6298353;28;20049;-75
2021/10/10 11:05:05;;;;;;;5.63;3.30;;;;;;;11.29;79.28;102462.97;6291637;28;20473;-75
2021/10/10 11:08:09;;;;;;;14.25;3.58;;;;;;;11.46;78.41;102457.22;6299820;28;20076;-75
2021/10/10 11:11:18;;;;;;;6.15;3.22;;;;;;;11.64;78.42;102438.25;6299561;28;20048;-75
2021/10/10 11:14:20;;;;;;;7.15;3.78;;;;;;;11.93;78.33;102442.63;6299478;28;20499;-75
2021/10/10 11:17:22;;;;;;;6.80;4.28;;;;;;;11.99;75.75;102445.09;6299376;28;20040;-76
2021/10/10 11:20:24;;;;;;;5.95;3.30;;;;;;;12.00;76.21;102440.69;6299430;28;20438;-75
2021/10/10 11:23:27;;;;;;;8.70;3.75;;;;;;;11.89;75.47;102447.13;6299092;28;20051;-75
2021/10/10 11:26:32;;;;;;;6.13;2.85;;;;;;;11.77;75.04;102447.50;6299474;28;20052;-75
2021/10/10 11:29:33;;;;;;;5.65;3.00;;;;;;;11.75;76.22;102440.53;6299246;28;20411;-75
2021/10/10 11:36:03;;;;;;;6.45;3.40;;;;;;;11.87;76.39;102430.53;6318058;27;20348;-76
2021/10/10 11:39:06;;;;;;;5.65;3.50;;;;;;;11.81;75.56;102421.91;6317019;28;20138;-76
2021/10/10 11:42:10;;;;;;;7.20;3.17;;;;;;;11.79;76.87;102423.72;6317003;28;20052;-76
2021/10/10 11:45:12;;;;;;;5.80;3.35;;;;;;;11.77;76.52;102412.41;6317737;28;20131;-76
2021/10/10 11:48:13;;;;;;;7.90;4.07;;;;;;;11.76;76.87;102410.66;6317941;28;20044;-76
2021/10/10 11:51:32;;;;;;;7.65;3.20;;;;;;;11.84;78.74;102406.03;6318132;28;20055;-76
2021/10/10 11:54:36;;;;;;;6.68;3.53;;;;;;;11.92;77.53;102404.88;6317279;28;20442;-76
2021/10/10 11:57:38;;;;;;;5.85;3.53;;;;;;;12.16;78.87;102403.22;6318171;28;20048;-74
2021/10/10 12:00:40;;;;;;;5.75;3.47;;;;;;;12.30;78.69;102408.00;6317870;28;20063;-74
2021/10/10 12:03:45;;;;;;;7.93;3.72;;;;;;;12.38;78.26;102419.16;6323419;22;20068;-78
2021/10/10 12:06:49;;;;;;;6.70;3.55;;;;;;;12.51;76.62;102409.06;6277737;28;20072;-78
2021/10/10 12:09:52;;;;;;;7.90;3.28;;;;;;;12.65;76.56;102412.06;6277538;28;20057;-78
2021/10/10 12:12:53;;;;;;;5.82;3.42;;;;;;;13.09;76.51;102399.06;6278499;28;20416;-78
2021/10/10 12:15:58;;;;;;;7.97;3.88;;;;;;;13.57;73.92;102399.91;6271534;28;20441;-78
2021/10/10 12:19:00;;;;;;;7.55;4.05;;;;;;;13.79;73.17;102392.84;6268263;28;20535;-77
2021/10/10 12:22:03;;;;;;;8.45;3.35;;;;;;;13.96;72.98;102389.50;6268157;28;20052;-78
2021/10/10 12:25:05;;;;;;;5.95;2.85;;;;;;;14.16;72.04;102386.03;6267670;28;20053;-78
2021/10/10 12:28:09;;;;;;;11.68;3.95;;;;;;;14.27;68.92;102380.31;6268021;28;20484;-78
2021/10/10 12:31:12;;;;;;;6.97;3.42;;;;;;;14.57;69.22;102376.34;6268162;28;20045;-77
2021/10/10 12:34:13;;;;;;;6.65;3.00;;;;;;;14.83;69.28;102376.97;6267442;28;20484;-78
2021/10/10 12:37:20;;;;;;;8.00;3.10;;;;;;;14.87;66.30;102371.47;6268247;28;20056;-78
2021/10/10 12:40:35;;;;;;;8.40;4.30;;;;;;;14.87;65.99;102363.53;6267452;28;20057;-78
2021/10/10 12:43:39;;;;;;;6.82;3.20;;;;;;;14.89;66.21;102364.31;6267916;28;20643;-78
2021/10/10 12:46:47;;;;;;;8.13;3.80;;;;;;;15.06;63.58;102354.75;6255365;28;20057;-78
2021/10/10 12:49:55;;;;;;;7.25;3.75;;;;;;;15.25;66.46;102349.44;6251246;28;20056;-77
2021/10/10 12:52:58;;;;;;;9.00;3.67;;;;;;;15.37;63.01;102351.53;6251003;28;20046;-78
2021/10/10 12:56:18;;;;;;;7.95;3.53;;;;;;;15.48;65.73;102352.72;6250848;28;20056;-78
2021/10/10 12:59:21;;;;;;;4.75;3.03;;;;;;;15.60;63.39;102355.72;6250968;28;20386;-78
2021/10/10 13:02:23;;;;;;;6.55;3.70;;;;;;;15.87;62.89;102356.19;6251090;28;20428;-78
2021/10/10 13:05:24;;;;;;;7.53;3.53;;;;;;;15.70;61.54;102355.22;6250387;28;20517;-78
2021/10/10 13:08:27;;;;;;;9.57;4.07;;;;;;;15.56;62.25;102354.13;6251105;28;20049;-77
2021/10/10 13:11:29;;;;;;;7.70;3.22;;;;;;;15.62;63.04;102356.47;6250446;28;20543;-78
2021/10/10 13:14:31;;;;;;;7.05;3.70;;;;;;;15.73;62.17;102352.41;6250225;28;20053;-78
2021/10/10 13:17:33;;;;;;;6.90;3.63;;;;;;;15.80;60.34;102347.66;6250349;28;20049;-77
2021/10/10 13:20:34;;;;;;;6.30;3.78;;;;;;;15.88;61.81;102349.94;6250585;28;20056;-79
2021/10/10 13:23:39;;;;;;;6.07;3.35;;;;;;;15.92;63.19;102351.50;6250076;28;20045;-78
2021/10/10 13:26:40;;;;;;;9.80;4.18;;;;;;;16.00;63.24;102344.03;6250554;28;20045;-78
2021/10/10 13:29:41;;;;;;;7.53;3.80;;;;;;;15.98;62.84;102345.88;6250939;28;20057;-78
2021/10/10 13:32:43;;;;;;;4.60;3.03;;;;;;;16.11;63.10;102341.66;6250518;28;20045;-85
2021/10/10 13:35:44;;;;;;;8.30;4.10;;;;;;;16.10;61.03;102333.81;6250741;28;20511;-78
2021/10/10 13:38:47;;;;;;;6.07;3.33;;;;;;;16.13;62.81;102331.00;6250330;28;20053;-78
2021/10/10 13:41:48;;;;;;;7.38;3.22;;;;;;;16.06;62.36;102316.31;6250808;28;20053;-78
2021/10/10 13:44:50;;;;;;;7.93;3.17;;;;;;;16.09;64.08;102316.19;6249249;28;20052;-78
2021/10/10 13:47:51;;;;;;;6.90;3.35;;;;;;;15.97;63.00;102315.00;6249500;28;20049;-78
2021/10/10 13:50:53;;;;;;;6.55;3.05;;;;;;;16.08;63.25;102309.13;6249412;28;20056;-78
2021/10/10 13:53:56;;;;;;;6.40;3.05;;;;;;;16.24;62.72;102310.06;6248810;28;20049;-77
2021/10/10 13:56:57;;;;;;;7.18;3.35;;;;;;;16.19;64.97;102312.97;6248438;28;20397;-78
2021/10/10 13:59:59;;;;;;;5.00;2.97;;;;;;;16.13;62.98;102307.13;6250664;28;20053;-78
2021/10/10 14:03:02;;;;;;;8.23;3.60;;;;;;;15.98;63.44;102303.44;6250281;28;20046;-78
2021/10/10 14:06:03;;;;;;;7.53;3.80;;;;;;;15.88;62.07;102302.22;6249425;28;20416;-78
2021/10/10 14:09:06;;;;;;;5.78;3.60;;;;;;;15.84;64.14;102300.66;6249783;28;20057;-78
2021/10/10 14:12:07;;;;;;;6.32;3.28;;;;;;;15.71;65.38;102292.44;6249443;28;20049;-77
2021/10/10 14:15:09;;;;;;;7.35;3.33;;;;;;;15.62;67.16;102292.88;6248938;28;20042;-78
2021/10/10 14:18:10;;;;;;;6.30;2.83;;;;;;;15.52;68.99;102299.56;6248741;28;20424;-77
2021/10/10 14:21:12;;;;;;;8.02;3.08;;;;;;;15.30;70.86;102302.41;6248822;28;20072;-77